sensor_id;sensor_type;location;lat;lon;timestamp;P1;durP1;ratioP1;P2;durP2;ratioP2
55784;SDS011;41709;52.536;5.688;2023-04-23T00:02:11;65.13;;;38.67;;
55784;SDS011;41709;52.536;5.688;2023-04-23T00:04:39;59.17;;;36.47;;
55784;SDS011;41709;52.536;5.688;2023-04-23T00:07:15;60.90;;;37.00;;
55784;SDS011;41709;52.536;5.688;2023-04-23T00:09:42;69.20;;;38.67;;
55784;SDS011;41709;52.536;5.688;2023-04-23T00:12:10;60.95;;;37.15;;
55784;SDS011;41709;52.536;5.688;2023-04-23T00:14:36;63.65;;;38.30;;
55784;SDS011;41709;52.536;5.688;2023-04-23T00:17:01;65.80;;;38.92;;
55784;SDS011;41709;52.536;5.688;2023-04-23T00:19:28;64.53;;;38.08;;
55784;SDS011;41709;52.536;5.688;2023-04-23T00:21:53;64.60;;;39.05;;
55784;SDS011;41709;52.536;5.688;2023-04-23T00:24:19;61.58;;;38.17;;
55784;SDS011;41709;52.536;5.688;2023-04-23T00:26:44;61.00;;;37.35;;
55784;SDS011;41709;52.536;5.688;2023-04-23T00:29:10;59.97;;;38.10;;
55784;SDS011;41709;52.536;5.688;2023-04-23T00:31:35;62.33;;;38.92;;
55784;SDS011;41709;52.536;5.688;2023-04-23T00:34:01;64.50;;;39.75;;
55784;SDS011;41709;52.536;5.688;2023-04-23T00:36:27;62.10;;;39.15;;
55784;SDS011;41709;52.536;5.688;2023-04-23T00:38:52;66.38;;;40.17;;
55784;SDS011;41709;52.536;5.688;2023-04-23T00:41:18;64.30;;;40.65;;
55784;SDS011;41709;52.536;5.688;2023-04-23T00:43:43;67.82;;;40.78;;
55784;SDS011;41709;52.536;5.688;2023-04-23T00:46:10;63.85;;;38.90;;
55784;SDS011;41709;52.536;5.688;2023-04-23T00:48:36;67.68;;;40.75;;
55784;SDS011;41709;52.536;5.688;2023-04-23T00:51:03;68.80;;;41.80;;
55784;SDS011;41709;52.536;5.688;2023-04-23T00:53:30;64.13;;;39.78;;
55784;SDS011;41709;52.536;5.688;2023-04-23T00:55:56;65.90;;;40.33;;
55784;SDS011;41709;52.536;5.688;2023-04-23T00:58:23;64.90;;;39.35;;
55784;SDS011;41709;52.536;5.688;2023-04-23T01:00:49;64.20;;;38.95;;
55784;SDS011;41709;52.536;5.688;2023-04-23T01:03:16;64.85;;;39.30;;
55784;SDS011;41709;52.536;5.688;2023-04-23T01:05:42;65.95;;;39.53;;
55784;SDS011;41709;52.536;5.688;2023-04-23T01:08:09;68.90;;;41.47;;
55784;SDS011;41709;52.536;5.688;2023-04-23T01:10:39;69.90;;;41.22;;
55784;SDS011;41709;52.536;5.688;2023-04-23T01:13:05;70.82;;;40.45;;
55784;SDS011;41709;52.536;5.688;2023-04-23T01:15:31;72.00;;;41.05;;
55784;SDS011;41709;52.536;5.688;2023-04-23T01:17:57;72.00;;;42.03;;
55784;SDS011;41709;52.536;5.688;2023-04-23T01:20:23;73.47;;;42.72;;
55784;SDS011;41709;52.536;5.688;2023-04-23T01:22:49;69.00;;;41.70;;
55784;SDS011;41709;52.536;5.688;2023-04-23T01:25:15;70.22;;;41.42;;
55784;SDS011;41709;52.536;5.688;2023-04-23T01:27:40;72.80;;;43.67;;
55784;SDS011;41709;52.536;5.688;2023-04-23T01:30:06;73.60;;;42.63;;
55784;SDS011;41709;52.536;5.688;2023-04-23T01:32:32;78.38;;;43.20;;
55784;SDS011;41709;52.536;5.688;2023-04-23T01:34:59;76.18;;;43.67;;
55784;SDS011;41709;52.536;5.688;2023-04-23T01:37:25;71.97;;;41.90;;
55784;SDS011;41709;52.536;5.688;2023-04-23T01:39:52;74.30;;;42.88;;
55784;SDS011;41709;52.536;5.688;2023-04-23T01:42:17;75.65;;;43.10;;
55784;SDS011;41709;52.536;5.688;2023-04-23T01:44:43;74.78;;;43.58;;
55784;SDS011;41709;52.536;5.688;2023-04-23T01:47:09;71.03;;;43.42;;
55784;SDS011;41709;52.536;5.688;2023-04-23T01:49:35;75.95;;;43.60;;
55784;SDS011;41709;52.536;5.688;2023-04-23T01:52:00;74.82;;;42.05;;
55784;SDS011;41709;52.536;5.688;2023-04-23T01:54:26;71.35;;;41.92;;
55784;SDS011;41709;52.536;5.688;2023-04-23T01:56:52;75.53;;;43.08;;
55784;SDS011;41709;52.536;5.688;2023-04-23T01:59:20;68.70;;;41.90;;
55784;SDS011;41709;52.536;5.688;2023-04-23T02:01:46;69.40;;;42.72;;
55784;SDS011;41709;52.536;5.688;2023-04-23T02:04:13;68.15;;;40.58;;
55784;SDS011;41709;52.536;5.688;2023-04-23T02:06:40;71.63;;;40.85;;
55784;SDS011;41709;52.536;5.688;2023-04-23T02:09:07;71.00;;;42.40;;
55784;SDS011;41709;52.536;5.688;2023-04-23T02:11:33;67.47;;;40.90;;
55784;SDS011;41709;52.536;5.688;2023-04-23T02:13:59;64.68;;;39.70;;
55784;SDS011;41709;52.536;5.688;2023-04-23T02:16:26;68.43;;;40.75;;
55784;SDS011;41709;52.536;5.688;2023-04-23T02:18:52;65.28;;;40.28;;
55784;SDS011;41709;52.536;5.688;2023-04-23T02:21:19;64.63;;;39.70;;
55784;SDS011;41709;52.536;5.688;2023-04-23T02:23:45;66.28;;;40.55;;
55784;SDS011;41709;52.536;5.688;2023-04-23T02:26:10;65.95;;;39.88;;
55784;SDS011;41709;52.536;5.688;2023-04-23T02:28:36;68.60;;;41.17;;
55784;SDS011;41709;52.536;5.688;2023-04-23T02:31:01;66.90;;;40.83;;
55784;SDS011;41709;52.536;5.688;2023-04-23T02:33:27;62.90;;;39.13;;
55784;SDS011;41709;52.536;5.688;2023-04-23T02:35:53;69.40;;;41.03;;
55784;SDS011;41709;52.536;5.688;2023-04-23T02:38:18;65.85;;;39.65;;
55784;SDS011;41709;52.536;5.688;2023-04-23T02:40:44;65.43;;;39.67;;
55784;SDS011;41709;52.536;5.688;2023-04-23T02:43:09;66.45;;;39.15;;
55784;SDS011;41709;52.536;5.688;2023-04-23T02:45:35;63.53;;;38.33;;
55784;SDS011;41709;52.536;5.688;2023-04-23T02:48:00;66.22;;;39.38;;
55784;SDS011;41709;52.536;5.688;2023-04-23T02:50:26;65.28;;;38.85;;
55784;SDS011;41709;52.536;5.688;2023-04-23T02:52:51;65.80;;;39.55;;
55784;SDS011;41709;52.536;5.688;2023-04-23T02:55:17;64.20;;;38.95;;
55784;SDS011;41709;52.536;5.688;2023-04-23T02:57:42;64.47;;;38.67;;
55784;SDS011;41709;52.536;5.688;2023-04-23T03:00:09;64.93;;;41.17;;
55784;SDS011;41709;52.536;5.688;2023-04-23T03:02:36;63.15;;;38.40;;
55784;SDS011;41709;52.536;5.688;2023-04-23T03:05:02;62.33;;;37.88;;
55784;SDS011;41709;52.536;5.688;2023-04-23T03:07:28;56.78;;;34.85;;
55784;SDS011;41709;52.536;5.688;2023-04-23T03:09:54;63.53;;;37.45;;
55784;SDS011;41709;52.536;5.688;2023-04-23T03:12:19;62.33;;;37.58;;
55784;SDS011;41709;52.536;5.688;2023-04-23T03:14:45;62.60;;;36.67;;
55784;SDS011;41709;52.536;5.688;2023-04-23T03:17:11;57.47;;;35.53;;
55784;SDS011;41709;52.536;5.688;2023-04-23T03:19:36;60.30;;;37.05;;
55784;SDS011;41709;52.536;5.688;2023-04-23T03:22:02;63.05;;;37.40;;
55784;SDS011;41709;52.536;5.688;2023-04-23T03:24:29;55.38;;;34.00;;
55784;SDS011;41709;52.536;5.688;2023-04-23T03:26:56;62.67;;;37.47;;
55784;SDS011;41709;52.536;5.688;2023-04-23T03:29:22;63.05;;;36.88;;
55784;SDS011;41709;52.536;5.688;2023-04-23T03:31:48;65.50;;;37.97;;
55784;SDS011;41709;52.536;5.688;2023-04-23T03:34:13;62.35;;;38.47;;
55784;SDS011;41709;52.536;5.688;2023-04-23T03:36:39;63.78;;;35.45;;
55784;SDS011;41709;52.536;5.688;2023-04-23T03:39:05;56.80;;;34.13;;
55784;SDS011;41709;52.536;5.688;2023-04-23T03:41:31;53.92;;;35.38;;
55784;SDS011;41709;52.536;5.688;2023-04-23T03:43:57;56.63;;;34.85;;
55784;SDS011;41709;52.536;5.688;2023-04-23T03:46:23;57.63;;;34.35;;
55784;SDS011;41709;52.536;5.688;2023-04-23T03:48:48;57.15;;;33.88;;
55784;SDS011;41709;52.536;5.688;2023-04-23T03:51:14;53.40;;;33.97;;
55784;SDS011;41709;52.536;5.688;2023-04-23T03:53:40;56.33;;;34.42;;
55784;SDS011;41709;52.536;5.688;2023-04-23T03:56:05;52.50;;;33.05;;
55784;SDS011;41709;52.536;5.688;2023-04-23T03:58:31;55.60;;;33.08;;
55784;SDS011;41709;52.536;5.688;2023-04-23T04:00:56;53.85;;;33.80;;
55784;SDS011;41709;52.536;5.688;2023-04-23T04:03:22;50.67;;;31.95;;
55784;SDS011;41709;52.536;5.688;2023-04-23T04:05:47;51.58;;;31.30;;
55784;SDS011;41709;52.536;5.688;2023-04-23T04:08:13;49.38;;;31.77;;
55784;SDS011;41709;52.536;5.688;2023-04-23T04:10:38;49.25;;;31.30;;
55784;SDS011;41709;52.536;5.688;2023-04-23T04:13:05;49.83;;;30.58;;
55784;SDS011;41709;52.536;5.688;2023-04-23T04:15:30;47.67;;;30.55;;
55784;SDS011;41709;52.536;5.688;2023-04-23T04:17:57;53.78;;;31.75;;
55784;SDS011;41709;52.536;5.688;2023-04-23T04:20:23;46.70;;;30.90;;
55784;SDS011;41709;52.536;5.688;2023-04-23T04:22:49;50.45;;;30.30;;
55784;SDS011;41709;52.536;5.688;2023-04-23T04:25:15;48.50;;;30.20;;
55784;SDS011;41709;52.536;5.688;2023-04-23T04:27:40;45.60;;;29.67;;
55784;SDS011;41709;52.536;5.688;2023-04-23T04:30:06;46.67;;;29.98;;
55784;SDS011;41709;52.536;5.688;2023-04-23T04:32:33;43.45;;;28.13;;
55784;SDS011;41709;52.536;5.688;2023-04-23T04:34:58;47.00;;;28.20;;
55784;SDS011;41709;52.536;5.688;2023-04-23T04:37:24;46.15;;;29.45;;
55784;SDS011;41709;52.536;5.688;2023-04-23T04:39:49;49.78;;;29.65;;
55784;SDS011;41709;52.536;5.688;2023-04-23T04:42:15;44.67;;;28.58;;
55784;SDS011;41709;52.536;5.688;2023-04-23T04:44:41;46.15;;;28.17;;
55784;SDS011;41709;52.536;5.688;2023-04-23T04:47:07;47.15;;;28.23;;
55784;SDS011;41709;52.536;5.688;2023-04-23T04:49:33;46.15;;;28.42;;
55784;SDS011;41709;52.536;5.688;2023-04-23T04:51:59;44.45;;;28.40;;
55784;SDS011;41709;52.536;5.688;2023-04-23T04:54:25;41.10;;;27.10;;
55784;SDS011;41709;52.536;5.688;2023-04-23T04:56:51;42.03;;;27.02;;
55784;SDS011;41709;52.536;5.688;2023-04-23T04:59:16;43.20;;;28.17;;
55784;SDS011;41709;52.536;5.688;2023-04-23T05:01:42;39.83;;;26.95;;
55784;SDS011;41709;52.536;5.688;2023-04-23T05:04:08;42.78;;;27.33;;
55784;SDS011;41709;52.536;5.688;2023-04-23T05:06:34;39.83;;;26.15;;
55784;SDS011;41709;52.536;5.688;2023-04-23T05:08:59;44.38;;;26.42;;
55784;SDS011;41709;52.536;5.688;2023-04-23T05:11:25;43.05;;;28.65;;
55784;SDS011;41709;52.536;5.688;2023-04-23T05:13:51;42.88;;;26.10;;
55784;SDS011;41709;52.536;5.688;2023-04-23T05:16:17;39.72;;;25.85;;
55784;SDS011;41709;52.536;5.688;2023-04-23T05:18:42;42.42;;;25.58;;
55784;SDS011;41709;52.536;5.688;2023-04-23T05:21:08;41.50;;;25.85;;
55784;SDS011;41709;52.536;5.688;2023-04-23T05:23:34;38.35;;;24.23;;
55784;SDS011;41709;52.536;5.688;2023-04-23T05:26:00;38.55;;;25.88;;
55784;SDS011;41709;52.536;5.688;2023-04-23T05:28:27;40.15;;;25.52;;
55784;SDS011;41709;52.536;5.688;2023-04-23T05:30:53;38.63;;;24.58;;
55784;SDS011;41709;52.536;5.688;2023-04-23T05:33:19;38.25;;;24.42;;
55784;SDS011;41709;52.536;5.688;2023-04-23T05:35:44;40.15;;;24.95;;
55784;SDS011;41709;52.536;5.688;2023-04-23T05:38:10;39.72;;;26.05;;
55784;SDS011;41709;52.536;5.688;2023-04-23T05:40:36;35.00;;;24.05;;
55784;SDS011;41709;52.536;5.688;2023-04-23T05:43:01;41.25;;;26.40;;
55784;SDS011;41709;52.536;5.688;2023-04-23T05:45:27;37.67;;;24.60;;
55784;SDS011;41709;52.536;5.688;2023-04-23T05:47:52;37.17;;;25.15;;
55784;SDS011;41709;52.536;5.688;2023-04-23T05:50:19;34.75;;;23.05;;
55784;SDS011;41709;52.536;5.688;2023-04-23T05:52:45;36.85;;;24.02;;
55784;SDS011;41709;52.536;5.688;2023-04-23T05:55:11;37.88;;;23.75;;
55784;SDS011;41709;52.536;5.688;2023-04-23T05:57:39;34.60;;;23.37;;
55784;SDS011;41709;52.536;5.688;2023-04-23T06:00:05;33.20;;;23.40;;
55784;SDS011;41709;52.536;5.688;2023-04-23T06:02:33;35.28;;;24.48;;
55784;SDS011;41709;52.536;5.688;2023-04-23T06:05:00;32.55;;;22.77;;
55784;SDS011;41709;52.536;5.688;2023-04-23T06:07:25;35.67;;;23.70;;
55784;SDS011;41709;52.536;5.688;2023-04-23T06:09:51;34.42;;;23.02;;
55784;SDS011;41709;52.536;5.688;2023-04-23T06:12:17;33.53;;;23.02;;
55784;SDS011;41709;52.536;5.688;2023-04-23T06:14:42;32.70;;;22.42;;
55784;SDS011;41709;52.536;5.688;2023-04-23T06:17:08;32.25;;;22.85;;
55784;SDS011;41709;52.536;5.688;2023-04-23T06:19:33;33.47;;;23.13;;
55784;SDS011;41709;52.536;5.688;2023-04-23T06:21:59;34.13;;;23.60;;
55784;SDS011;41709;52.536;5.688;2023-04-23T06:24:24;33.85;;;21.45;;
55784;SDS011;41709;52.536;5.688;2023-04-23T06:26:50;32.92;;;23.23;;
55784;SDS011;41709;52.536;5.688;2023-04-23T06:29:15;33.83;;;21.88;;
55784;SDS011;41709;52.536;5.688;2023-04-23T06:31:41;34.10;;;22.10;;
55784;SDS011;41709;52.536;5.688;2023-04-23T06:34:07;28.48;;;20.85;;
55784;SDS011;41709;52.536;5.688;2023-04-23T06:36:32;32.53;;;22.83;;
55784;SDS011;41709;52.536;5.688;2023-04-23T06:38:58;31.92;;;22.40;;
55784;SDS011;41709;52.536;5.688;2023-04-23T06:41:23;30.15;;;21.55;;
55784;SDS011;41709;52.536;5.688;2023-04-23T06:43:49;29.88;;;20.85;;
55784;SDS011;41709;52.536;5.688;2023-04-23T06:46:15;28.75;;;21.83;;
55784;SDS011;41709;52.536;5.688;2023-04-23T06:48:40;27.08;;;20.52;;
55784;SDS011;41709;52.536;5.688;2023-04-23T06:51:06;26.45;;;20.20;;
55784;SDS011;41709;52.536;5.688;2023-04-23T06:53:31;29.15;;;20.25;;
55784;SDS011;41709;52.536;5.688;2023-04-23T06:55:57;28.40;;;20.23;;
55784;SDS011;41709;52.536;5.688;2023-04-23T06:58:23;26.52;;;19.42;;
55784;SDS011;41709;52.536;5.688;2023-04-23T07:00:55;26.17;;;19.58;;
55784;SDS011;41709;52.536;5.688;2023-04-23T07:03:29;25.15;;;18.58;;
55784;SDS011;41709;52.536;5.688;2023-04-23T08:11:19;20.15;;;13.20;;
55784;SDS011;41709;52.536;5.688;2023-04-23T08:13:45;15.60;;;11.20;;
55784;SDS011;41709;52.536;5.688;2023-04-23T08:16:11;19.15;;;11.75;;
55784;SDS011;41709;52.536;5.688;2023-04-23T08:18:37;15.20;;;11.15;;
55784;SDS011;41709;52.536;5.688;2023-04-23T08:21:02;21.23;;;12.40;;
55784;SDS011;41709;52.536;5.688;2023-04-23T08:23:28;15.68;;;9.98;;
55784;SDS011;41709;52.536;5.688;2023-04-23T08:25:54;13.93;;;9.82;;
55784;SDS011;41709;52.536;5.688;2023-04-23T08:28:19;14.55;;;10.45;;
55784;SDS011;41709;52.536;5.688;2023-04-23T08:30:45;12.75;;;9.23;;
55784;SDS011;41709;52.536;5.688;2023-04-23T08:33:10;14.20;;;9.07;;
55784;SDS011;41709;52.536;5.688;2023-04-23T08:35:36;12.73;;;9.38;;
55784;SDS011;41709;52.536;5.688;2023-04-23T08:38:02;16.77;;;9.35;;
55784;SDS011;41709;52.536;5.688;2023-04-23T08:40:29;12.88;;;8.95;;
55784;SDS011;41709;52.536;5.688;2023-04-23T08:42:56;14.37;;;8.63;;
55784;SDS011;41709;52.536;5.688;2023-04-23T08:45:25;12.93;;;9.70;;
55784;SDS011;41709;52.536;5.688;2023-04-23T08:47:51;11.73;;;8.25;;
55784;SDS011;41709;52.536;5.688;2023-04-23T08:50:22;13.20;;;8.20;;
55784;SDS011;41709;52.536;5.688;2023-04-23T08:52:49;12.32;;;7.75;;
55784;SDS011;41709;52.536;5.688;2023-04-23T08:55:17;10.05;;;7.45;;
55784;SDS011;41709;52.536;5.688;2023-04-23T08:57:44;11.52;;;7.70;;
55784;SDS011;41709;52.536;5.688;2023-04-23T09:00:11;12.93;;;7.47;;
55784;SDS011;41709;52.536;5.688;2023-04-23T09:02:40;11.38;;;7.07;;
55784;SDS011;41709;52.536;5.688;2023-04-23T09:05:07;10.77;;;7.45;;
55784;SDS011;41709;52.536;5.688;2023-04-23T09:07:34;13.10;;;7.43;;
55784;SDS011;41709;52.536;5.688;2023-04-23T09:10:01;12.32;;;7.25;;
55784;SDS011;41709;52.536;5.688;2023-04-23T09:12:27;11.20;;;6.88;;
55784;SDS011;41709;52.536;5.688;2023-04-23T09:14:53;7.63;;;5.70;;
55784;SDS011;41709;52.536;5.688;2023-04-23T09:17:20;11.40;;;6.10;;
55784;SDS011;41709;52.536;5.688;2023-04-23T09:19:47;9.10;;;6.22;;
55784;SDS011;41709;52.536;5.688;2023-04-23T09:22:15;8.93;;;6.45;;
55784;SDS011;41709;52.536;5.688;2023-04-23T09:25:01;10.73;;;5.38;;
55784;SDS011;41709;52.536;5.688;2023-04-23T09:27:29;9.27;;;5.40;;
55784;SDS011;41709;52.536;5.688;2023-04-23T09:29:54;9.57;;;5.00;;
55784;SDS011;41709;52.536;5.688;2023-04-23T09:32:21;8.57;;;4.65;;
55784;SDS011;41709;52.536;5.688;2023-04-23T09:34:57;10.27;;;4.38;;
55784;SDS011;41709;52.536;5.688;2023-04-23T09:37:25;8.05;;;4.35;;
55784;SDS011;41709;52.536;5.688;2023-04-23T09:39:51;10.55;;;5.45;;
55784;SDS011;41709;52.536;5.688;2023-04-23T09:42:21;8.57;;;4.97;;
55784;SDS011;41709;52.536;5.688;2023-04-23T09:44:58;10.05;;;4.68;;
55784;SDS011;41709;52.536;5.688;2023-04-23T09:47:30;9.73;;;4.10;;
55784;SDS011;41709;52.536;5.688;2023-04-23T09:49:57;9.43;;;3.80;;
55784;SDS011;41709;52.536;5.688;2023-04-23T09:52:23;10.60;;;4.38;;
55784;SDS011;41709;52.536;5.688;2023-04-23T09:54:49;5.50;;;2.92;;
55784;SDS011;41709;52.536;5.688;2023-04-23T09:57:15;6.43;;;3.13;;
55784;SDS011;41709;52.536;5.688;2023-04-23T09:59:40;11.13;;;3.13;;
55784;SDS011;41709;52.536;5.688;2023-04-23T10:02:07;9.25;;;2.83;;
55784;SDS011;41709;52.536;5.688;2023-04-23T10:04:33;9.18;;;2.80;;
55784;SDS011;41709;52.536;5.688;2023-04-23T10:07:00;10.38;;;2.83;;
55784;SDS011;41709;52.536;5.688;2023-04-23T10:09:28;6.63;;;2.30;;
55784;SDS011;41709;52.536;5.688;2023-04-23T10:11:55;5.65;;;2.45;;
55784;SDS011;41709;52.536;5.688;2023-04-23T10:14:22;7.43;;;2.28;;
55784;SDS011;41709;52.536;5.688;2023-04-23T10:16:50;7.78;;;2.38;;
55784;SDS011;41709;52.536;5.688;2023-04-23T10:19:21;5.95;;;2.25;;
55784;SDS011;41709;52.536;5.688;2023-04-23T10:21:52;12.10;;;2.22;;
55784;SDS011;41709;52.536;5.688;2023-04-23T10:24:22;8.52;;;2.10;;
55784;SDS011;41709;52.536;5.688;2023-04-23T10:26:48;9.27;;;2.10;;
55784;SDS011;41709;52.536;5.688;2023-04-23T10:29:16;9.63;;;3.00;;
55784;SDS011;41709;52.536;5.688;2023-04-23T10:31:48;7.15;;;2.58;;
55784;SDS011;41709;52.536;5.688;2023-04-23T10:34:15;8.07;;;2.05;;
55784;SDS011;41709;52.536;5.688;2023-04-23T10:36:41;7.07;;;1.70;;
55784;SDS011;41709;52.536;5.688;2023-04-23T10:39:06;11.23;;;2.60;;
55784;SDS011;41709;52.536;5.688;2023-04-23T10:41:35;6.50;;;2.00;;
55784;SDS011;41709;52.536;5.688;2023-04-23T10:44:08;6.85;;;1.83;;
55784;SDS011;41709;52.536;5.688;2023-04-23T10:46:36;7.22;;;1.73;;
55784;SDS011;41709;52.536;5.688;2023-04-23T10:49:12;3.88;;;1.55;;
55784;SDS011;41709;52.536;5.688;2023-04-23T10:51:40;11.02;;;2.22;;
55784;SDS011;41709;52.536;5.688;2023-04-23T10:54:30;6.70;;;1.83;;
55784;SDS011;41709;52.536;5.688;2023-04-23T10:56:58;5.68;;;1.42;;
55784;SDS011;41709;52.536;5.688;2023-04-23T10:59:28;7.85;;;1.73;;
55784;SDS011;41709;52.536;5.688;2023-04-23T11:01:55;5.13;;;1.50;;
55784;SDS011;41709;52.536;5.688;2023-04-23T11:04:25;8.45;;;2.13;;
55784;SDS011;41709;52.536;5.688;2023-04-23T11:06:56;6.45;;;1.63;;
55784;SDS011;41709;52.536;5.688;2023-04-23T11:09:37;11.35;;;1.58;;
55784;SDS011;41709;52.536;5.688;2023-04-23T11:14:52;9.30;;;1.70;;
55784;SDS011;41709;52.536;5.688;2023-04-23T11:20:17;4.53;;;1.60;;
55784;SDS011;41709;52.536;5.688;2023-04-23T11:22:45;4.87;;;1.83;;
55784;SDS011;41709;52.536;5.688;2023-04-23T11:25:13;5.90;;;1.38;;
55784;SDS011;41709;52.536;5.688;2023-04-23T11:27:46;5.75;;;1.30;;
55784;SDS011;41709;52.536;5.688;2023-04-23T11:30:14;6.88;;;1.48;;
55784;SDS011;41709;52.536;5.688;2023-04-23T11:32:45;3.65;;;1.10;;
55784;SDS011;41709;52.536;5.688;2023-04-23T11:35:16;5.30;;;1.60;;
55784;SDS011;41709;52.536;5.688;2023-04-23T11:37:43;6.00;;;1.50;;
55784;SDS011;41709;52.536;5.688;2023-04-23T11:40:10;5.32;;;1.17;;
55784;SDS011;41709;52.536;5.688;2023-04-23T11:42:41;8.80;;;1.50;;
55784;SDS011;41709;52.536;5.688;2023-04-23T11:47:51;6.65;;;1.33;;
55784;SDS011;41709;52.536;5.688;2023-04-23T11:50:30;6.97;;;1.17;;
55784;SDS011;41709;52.536;5.688;2023-04-23T11:53:03;5.85;;;1.73;;
55784;SDS011;41709;52.536;5.688;2023-04-23T11:55:31;6.85;;;1.30;;
55784;SDS011;41709;52.536;5.688;2023-04-23T11:57:56;6.63;;;1.13;;
55784;SDS011;41709;52.536;5.688;2023-04-23T12:00:23;4.78;;;1.50;;
55784;SDS011;41709;52.536;5.688;2023-04-23T12:02:50;8.75;;;1.52;;
55784;SDS011;41709;52.536;5.688;2023-04-23T12:05:18;5.15;;;1.00;;
55784;SDS011;41709;52.536;5.688;2023-04-23T12:10:18;2.95;;;0.70;;
55784;SDS011;41709;52.536;5.688;2023-04-23T12:12:48;5.07;;;0.90;;
55784;SDS011;41709;52.536;5.688;2023-04-23T12:15:15;4.30;;;0.93;;
55784;SDS011;41709;52.536;5.688;2023-04-23T12:17:41;6.60;;;1.50;;
55784;SDS011;41709;52.536;5.688;2023-04-23T12:20:08;5.07;;;1.23;;
55784;SDS011;41709;52.536;5.688;2023-04-23T12:22:37;3.72;;;1.00;;
55784;SDS011;41709;52.536;5.688;2023-04-23T12:25:04;5.55;;;1.40;;
55784;SDS011;41709;52.536;5.688;2023-04-23T12:27:37;6.07;;;1.50;;
55784;SDS011;41709;52.536;5.688;2023-04-23T12:30:04;6.78;;;1.65;;
55784;SDS011;41709;52.536;5.688;2023-04-23T12:32:31;2.97;;;1.27;;
55784;SDS011;41709;52.536;5.688;2023-04-23T12:34:58;3.65;;;0.88;;
55784;SDS011;41709;52.536;5.688;2023-04-23T12:37:27;6.13;;;1.05;;
55784;SDS011;41709;52.536;5.688;2023-04-23T12:39:54;3.85;;;1.13;;
55784;SDS011;41709;52.536;5.688;2023-04-23T12:42:23;4.40;;;1.20;;
55784;SDS011;41709;52.536;5.688;2023-04-23T12:44:50;5.20;;;0.95;;
55784;SDS011;41709;52.536;5.688;2023-04-23T12:47:16;3.63;;;0.90;;
55784;SDS011;41709;52.536;5.688;2023-04-23T12:49:43;3.10;;;0.90;;
55784;SDS011;41709;52.536;5.688;2023-04-23T12:52:10;3.67;;;1.17;;
55784;SDS011;41709;52.536;5.688;2023-04-23T12:54:36;2.47;;;0.75;;
55784;SDS011;41709;52.536;5.688;2023-04-23T12:57:07;3.45;;;1.02;;
55784;SDS011;41709;52.536;5.688;2023-04-23T12:59:36;3.03;;;0.75;;
55784;SDS011;41709;52.536;5.688;2023-04-23T13:02:02;4.82;;;1.05;;
55784;SDS011;41709;52.536;5.688;2023-04-23T13:04:28;5.50;;;1.25;;
55784;SDS011;41709;52.536;5.688;2023-04-23T13:06:55;5.25;;;1.10;;
55784;SDS011;41709;52.536;5.688;2023-04-23T13:09:21;5.00;;;0.77;;
55784;SDS011;41709;52.536;5.688;2023-04-23T13:11:48;2.45;;;0.80;;
55784;SDS011;41709;52.536;5.688;2023-04-23T13:14:14;5.28;;;1.10;;
55784;SDS011;41709;52.536;5.688;2023-04-23T13:16:41;3.28;;;0.80;;
55784;SDS011;41709;52.536;5.688;2023-04-23T13:19:07;1.05;;;0.52;;
55784;SDS011;41709;52.536;5.688;2023-04-23T13:21:32;2.70;;;0.68;;
55784;SDS011;41709;52.536;5.688;2023-04-23T13:23:58;4.63;;;0.98;;
55784;SDS011;41709;52.536;5.688;2023-04-23T13:26:24;2.92;;;0.85;;
55784;SDS011;41709;52.536;5.688;2023-04-23T13:28:50;3.35;;;0.70;;
55784;SDS011;41709;52.536;5.688;2023-04-23T13:31:16;5.70;;;0.75;;
55784;SDS011;41709;52.536;5.688;2023-04-23T13:33:41;3.75;;;0.80;;
55784;SDS011;41709;52.536;5.688;2023-04-23T13:36:07;5.28;;;0.90;;
55784;SDS011;41709;52.536;5.688;2023-04-23T13:38:33;5.85;;;0.80;;
55784;SDS011;41709;52.536;5.688;2023-04-23T13:40:59;5.50;;;0.80;;
55784;SDS011;41709;52.536;5.688;2023-04-23T13:43:24;3.88;;;0.93;;
55784;SDS011;41709;52.536;5.688;2023-04-23T13:45:51;3.42;;;0.90;;
55784;SDS011;41709;52.536;5.688;2023-04-23T13:48:17;3.65;;;0.63;;
55784;SDS011;41709;52.536;5.688;2023-04-23T13:50:43;4.75;;;0.80;;
55784;SDS011;41709;52.536;5.688;2023-04-23T13:53:10;2.42;;;0.63;;
55784;SDS011;41709;52.536;5.688;2023-04-23T13:55:36;3.63;;;0.80;;
55784;SDS011;41709;52.536;5.688;2023-04-23T13:58:02;1.80;;;0.50;;
55784;SDS011;41709;52.536;5.688;2023-04-23T14:00:28;3.83;;;0.68;;
55784;SDS011;41709;52.536;5.688;2023-04-23T14:02:54;2.92;;;0.70;;
55784;SDS011;41709;52.536;5.688;2023-04-23T14:05:20;5.88;;;1.63;;
55784;SDS011;41709;52.536;5.688;2023-04-23T14:07:45;1.88;;;0.50;;
55784;SDS011;41709;52.536;5.688;2023-04-23T14:10:11;2.88;;;0.82;;
55784;SDS011;41709;52.536;5.688;2023-04-23T14:12:38;3.22;;;0.70;;
55784;SDS011;41709;52.536;5.688;2023-04-23T14:15:05;4.25;;;1.73;;
55784;SDS011;41709;52.536;5.688;2023-04-23T14:17:32;4.18;;;1.27;;
55784;SDS011;41709;52.536;5.688;2023-04-23T14:19:58;1.55;;;0.60;;
55784;SDS011;41709;52.536;5.688;2023-04-23T14:22:23;2.75;;;1.15;;
55784;SDS011;41709;52.536;5.688;2023-04-23T14:24:49;3.55;;;0.77;;
55784;SDS011;41709;52.536;5.688;2023-04-23T14:27:21;3.67;;;0.90;;
55784;SDS011;41709;52.536;5.688;2023-04-23T14:29:50;2.67;;;0.50;;
55784;SDS011;41709;52.536;5.688;2023-04-23T14:32:19;3.22;;;0.60;;
55784;SDS011;41709;52.536;5.688;2023-04-23T14:34:44;2.80;;;0.47;;
55784;SDS011;41709;52.536;5.688;2023-04-23T14:37:10;4.90;;;0.50;;
55784;SDS011;41709;52.536;5.688;2023-04-23T14:39:36;4.32;;;0.80;;
55784;SDS011;41709;52.536;5.688;2023-04-23T14:42:01;2.60;;;0.80;;
55784;SDS011;41709;52.536;5.688;2023-04-23T14:44:27;4.53;;;1.00;;
55784;SDS011;41709;52.536;5.688;2023-04-23T14:46:53;2.42;;;0.90;;
55784;SDS011;41709;52.536;5.688;2023-04-23T14:49:19;3.05;;;0.70;;
55784;SDS011;41709;52.536;5.688;2023-04-23T14:51:45;2.08;;;0.82;;
55784;SDS011;41709;52.536;5.688;2023-04-23T14:54:15;3.05;;;1.42;;
55784;SDS011;41709;52.536;5.688;2023-04-23T14:56:41;3.97;;;0.70;;
55784;SDS011;41709;52.536;5.688;2023-04-23T14:59:07;2.78;;;0.63;;
55784;SDS011;41709;52.536;5.688;2023-04-23T15:01:32;6.13;;;0.90;;
55784;SDS011;41709;52.536;5.688;2023-04-23T15:03:58;2.85;;;1.33;;
55784;SDS011;41709;52.536;5.688;2023-04-23T15:06:24;3.20;;;0.70;;
55784;SDS011;41709;52.536;5.688;2023-04-23T15:08:50;3.30;;;0.98;;
55784;SDS011;41709;52.536;5.688;2023-04-23T15:11:15;3.45;;;0.80;;
55784;SDS011;41709;52.536;5.688;2023-04-23T15:16:31;3.13;;;0.77;;
55784;SDS011;41709;52.536;5.688;2023-04-23T15:18:59;8.98;;;1.00;;
55784;SDS011;41709;52.536;5.688;2023-04-23T15:21:25;4.57;;;1.23;;
55784;SDS011;41709;52.536;5.688;2023-04-23T15:23:51;7.25;;;1.88;;
55784;SDS011;41709;52.536;5.688;2023-04-23T15:26:17;2.15;;;0.65;;
55784;SDS011;41709;52.536;5.688;2023-04-23T15:28:43;3.40;;;0.75;;
55784;SDS011;41709;52.536;5.688;2023-04-23T15:31:09;7.88;;;1.23;;
55784;SDS011;41709;52.536;5.688;2023-04-23T15:33:35;3.22;;;1.00;;
55784;SDS011;41709;52.536;5.688;2023-04-23T15:36:00;4.63;;;0.90;;
55784;SDS011;41709;52.536;5.688;2023-04-23T15:38:26;2.85;;;0.75;;
55784;SDS011;41709;52.536;5.688;2023-04-23T15:40:54;4.50;;;1.42;;
55784;SDS011;41709;52.536;5.688;2023-04-23T15:43:20;2.70;;;0.80;;
55784;SDS011;41709;52.536;5.688;2023-04-23T15:45:45;4.25;;;0.93;;
55784;SDS011;41709;52.536;5.688;2023-04-23T15:48:12;3.38;;;1.02;;
55784;SDS011;41709;52.536;5.688;2023-04-23T15:50:39;6.65;;;0.90;;